Weather at Václav Havel Airport Prague

Public forecast

Using degrees Celsius for public forecast. Weather courtesy of forecast.io.

Current aviation weather report (METAR) for Václav Havel Airport Prague

Retrieved 2021/01/22 05:30 UTC (0 seconds ago):

LKPR 220530Z 15011KT CAVOK 04/M01 Q0996 NOSIG

Aviation forecast (TAF) for Václav Havel Airport Prague

Retrieved 2021-01-22 00:03 UTC (5 hours ago):

TAF LKPR 212300Z 2200/2306 17010KT CAVOK BECMG 2217/2219 08005KT BECMG 2221/2223 01005KT 3000 BR OVC007 TEMPO 2223/2305 2200 BR OVC004 PROB30 TEMPO 2303/2305 1200 -RA OVC002 TEMPO 2305/2306 1200 RASN OVC002